sensor_id;sensor_type;location;lat;lon;timestamp;noise_LAeq;noise_LA_min;noise_LA_max;noise_LA01;noise_LA95
67300;Laerm;57658;51.436;5.980;2023-02-21T00:00:17;49.83;30.50;70.42;;
67300;Laerm;57658;51.436;5.980;2023-02-21T00:00:46;35.43;30.35;47.98;;
67300;Laerm;57658;51.436;5.980;2023-02-21T00:01:15;32.81;29.81;40.52;;
67300;Laerm;57658;51.436;5.980;2023-02-21T00:01:44;31.11;28.95;38.62;;
67300;Laerm;57658;51.436;5.980;2023-02-21T00:02:13;30.74;28.95;34.18;;
67300;Laerm;57658;51.436;5.980;2023-02-21T00:02:42;33.57;29.26;47.39;;
67300;Laerm;57658;51.436;5.980;2023-02-21T00:03:11;31.29;29.07;41.41;;
67300;Laerm;57658;51.436;5.980;2023-02-21T00:03:40;31.29;29.23;36.77;;
67300;Laerm;57658;51.436;5.980;2023-02-21T00:04:09;31.66;28.92;41.36;;
67300;Laerm;57658;51.436;5.980;2023-02-21T00:04:38;31.72;29.17;40.49;;
67300;Laerm;57658;51.436;5.980;2023-02-21T00:05:07;31.34;29.26;37.85;;
67300;Laerm;57658;51.436;5.980;2023-02-21T00:05:36;34.75;30.32;49.68;;
67300;Laerm;57658;51.436;5.980;2023-02-21T00:06:06;44.61;30.69;53.56;;
67300;Laerm;57658;51.436;5.980;2023-02-21T00:06:35;35.97;29.53;43.58;;
67300;Laerm;57658;51.436;5.980;2023-02-21T00:07:04;31.29;29.15;40.49;;
67300;Laerm;57658;51.436;5.980;2023-02-21T00:07:33;31.86;30.15;36.06;;
67300;Laerm;57658;51.436;5.980;2023-02-21T00:08:02;32.56;30.85;34.51;;
67300;Laerm;57658;51.436;5.980;2023-02-21T00:08:30;71.37;31.96;79.52;;
67300;Laerm;57658;51.436;5.980;2023-02-21T00:08:59;67.90;56.21;77.37;;
67300;Laerm;57658;51.436;5.980;2023-02-21T00:09:28;80.80;54.49;93.03;;
67300;Laerm;57658;51.436;5.980;2023-02-21T00:09:57;46.68;34.69;57.22;;
67300;Laerm;57658;51.436;5.980;2023-02-21T00:10:26;35.49;31.87;46.36;;
67300;Laerm;57658;51.436;5.980;2023-02-21T00:10:55;33.69;31.05;40.17;;
67300;Laerm;57658;51.436;5.980;2023-02-21T00:11:24;32.95;30.71;37.48;;
67300;Laerm;57658;51.436;5.980;2023-02-21T00:11:53;32.75;30.78;34.60;;
67300;Laerm;57658;51.436;5.980;2023-02-21T00:12:22;31.98;29.64;34.26;;
67300;Laerm;57658;51.436;5.980;2023-02-21T00:12:50;32.15;29.91;36.02;;
67300;Laerm;57658;51.436;5.980;2023-02-21T00:13:19;71.35;31.40;80.93;;
67300;Laerm;57658;51.436;5.980;2023-02-21T00:13:48;68.09;55.79;77.29;;
67300;Laerm;57658;51.436;5.980;2023-02-21T00:14:17;83.86;58.58;91.87;;
67300;Laerm;57658;51.436;5.980;2023-02-21T00:14:46;72.35;35.45;88.71;;
67300;Laerm;57658;51.436;5.980;2023-02-21T00:15:15;36.86;30.88;51.82;;
67300;Laerm;57658;51.436;5.980;2023-02-21T00:15:44;32.74;30.06;40.90;;
67300;Laerm;57658;51.436;5.980;2023-02-21T00:16:14;34.19;30.07;45.37;;
67300;Laerm;57658;51.436;5.980;2023-02-21T00:16:43;71.16;29.77;79.33;;
67300;Laerm;57658;51.436;5.980;2023-02-21T00:17:12;70.85;55.32;86.29;;
67300;Laerm;57658;51.436;5.980;2023-02-21T00:17:40;85.01;58.59;93.23;;
67300;Laerm;57658;51.436;5.980;2023-02-21T00:18:09;50.89;38.91;59.70;;
67300;Laerm;57658;51.436;5.980;2023-02-21T00:18:39;37.76;33.54;43.65;;
67300;Laerm;57658;51.436;5.980;2023-02-21T00:19:08;34.06;30.14;39.09;;
67300;Laerm;57658;51.436;5.980;2023-02-21T00:19:37;31.34;29.62;33.74;;
67300;Laerm;57658;51.436;5.980;2023-02-21T00:20:06;31.25;29.25;34.05;;
67300;Laerm;57658;51.436;5.980;2023-02-21T00:20:35;30.67;28.53;37.01;;
67300;Laerm;57658;51.436;5.980;2023-02-21T00:21:04;30.97;29.06;38.19;;
67300;Laerm;57658;51.436;5.980;2023-02-21T00:21:33;30.65;29.02;36.03;;
67300;Laerm;57658;51.436;5.980;2023-02-21T00:22:02;30.54;28.95;33.39;;
67300;Laerm;57658;51.436;5.980;2023-02-21T00:22:31;30.50;29.15;33.89;;
67300;Laerm;57658;51.436;5.980;2023-02-21T00:22:59;30.57;28.46;35.22;;
67300;Laerm;57658;51.436;5.980;2023-02-21T00:23:32;30.20;28.52;40.61;;
67300;Laerm;57658;51.436;5.980;2023-02-21T00:24:01;31.03;28.54;47.25;;
67300;Laerm;57658;51.436;5.980;2023-02-21T00:24:30;30.28;28.60;34.41;;
67300;Laerm;57658;51.436;5.980;2023-02-21T00:24:59;30.83;28.67;34.57;;
67300;Laerm;57658;51.436;5.980;2023-02-21T00:25:28;30.65;29.19;32.58;;
67300;Laerm;57658;51.436;5.980;2023-02-21T00:25:57;32.61;30.01;38.05;;
67300;Laerm;57658;51.436;5.980;2023-02-21T00:26:26;32.98;30.18;35.64;;
67300;Laerm;57658;51.436;5.980;2023-02-21T00:26:55;31.92;29.75;35.59;;
67300;Laerm;57658;51.436;5.980;2023-02-21T00:27:24;31.16;28.95;35.24;;
67300;Laerm;57658;51.436;5.980;2023-02-21T00:27:53;33.18;29.82;40.09;;
67300;Laerm;57658;51.436;5.980;2023-02-21T00:28:22;36.55;31.08;49.86;;
67300;Laerm;57658;51.436;5.980;2023-02-21T00:28:51;44.25;30.22;58.21;;
67300;Laerm;57658;51.436;5.980;2023-02-21T00:29:20;50.87;31.54;62.93;;
67300;Laerm;57658;51.436;5.980;2023-02-21T00:29:49;56.11;32.98;71.95;;
67300;Laerm;57658;51.436;5.980;2023-02-21T00:30:18;45.44;30.10;58.59;;
67300;Laerm;57658;51.436;5.980;2023-02-21T00:30:47;49.54;33.05;63.91;;
67300;Laerm;57658;51.436;5.980;2023-02-21T00:31:17;54.33;35.06;69.16;;
67300;Laerm;57658;51.436;5.980;2023-02-21T00:31:46;39.61;31.41;52.66;;
67300;Laerm;57658;51.436;5.980;2023-02-21T00:32:15;31.41;29.22;35.62;;
67300;Laerm;57658;51.436;5.980;2023-02-21T00:32:44;31.71;29.66;39.95;;
67300;Laerm;57658;51.436;5.980;2023-02-21T00:33:13;31.39;29.31;38.84;;
67300;Laerm;57658;51.436;5.980;2023-02-21T00:33:41;31.63;29.62;38.86;;
67300;Laerm;57658;51.436;5.980;2023-02-21T00:34:10;31.56;29.84;39.45;;
67300;Laerm;57658;51.436;5.980;2023-02-21T00:34:39;32.80;30.10;42.34;;
67300;Laerm;57658;51.436;5.980;2023-02-21T00:35:08;32.60;30.23;35.71;;
67300;Laerm;57658;51.436;5.980;2023-02-21T00:35:37;32.21;29.84;41.32;;
67300;Laerm;57658;51.436;5.980;2023-02-21T00:36:06;31.54;29.83;35.62;;
67300;Laerm;57658;51.436;5.980;2023-02-21T00:36:35;31.08;29.53;34.21;;
67300;Laerm;57658;51.436;5.980;2023-02-21T00:37:04;30.92;29.26;34.33;;
67300;Laerm;57658;51.436;5.980;2023-02-21T00:37:33;31.29;29.52;35.17;;
67300;Laerm;57658;51.436;5.980;2023-02-21T00:38:02;32.40;30.47;35.37;;
67300;Laerm;57658;51.436;5.980;2023-02-21T00:38:31;32.65;31.01;34.26;;
67300;Laerm;57658;51.436;5.980;2023-02-21T00:39:00;32.15;29.96;35.08;;
67300;Laerm;57658;51.436;5.980;2023-02-21T00:39:29;31.53;29.59;41.01;;
67300;Laerm;57658;51.436;5.980;2023-02-21T00:39:58;31.73;29.82;38.60;;
67300;Laerm;57658;51.436;5.980;2023-02-21T00:40:27;33.16;30.39;36.48;;
67300;Laerm;57658;51.436;5.980;2023-02-21T00:40:56;71.61;32.39;79.36;;
67300;Laerm;57658;51.436;5.980;2023-02-21T00:41:25;77.27;55.03;87.46;;
67300;Laerm;57658;51.436;5.980;2023-02-21T00:41:53;81.25;40.46;88.96;;
67300;Laerm;57658;51.436;5.980;2023-02-21T00:42:22;35.76;31.50;42.01;;
67300;Laerm;57658;51.436;5.980;2023-02-21T00:42:51;32.45;30.45;36.82;;
67300;Laerm;57658;51.436;5.980;2023-02-21T00:43:26;32.37;30.11;40.63;;
67300;Laerm;57658;51.436;5.980;2023-02-21T00:43:55;41.90;32.36;50.12;;
67300;Laerm;57658;51.436;5.980;2023-02-21T00:44:24;42.67;31.08;61.56;;
67300;Laerm;57658;51.436;5.980;2023-02-21T00:44:52;31.86;29.74;36.95;;
67300;Laerm;57658;51.436;5.980;2023-02-21T00:45:22;41.64;30.35;57.98;;
67300;Laerm;57658;51.436;5.980;2023-02-21T00:45:50;38.53;31.36;54.93;;
67300;Laerm;57658;51.436;5.980;2023-02-21T00:46:20;32.94;30.42;38.62;;
67300;Laerm;57658;51.436;5.980;2023-02-21T00:46:49;34.76;31.19;44.28;;
67300;Laerm;57658;51.436;5.980;2023-02-21T00:47:17;33.66;30.76;41.66;;
67300;Laerm;57658;51.436;5.980;2023-02-21T00:47:46;35.32;29.88;47.01;;
67300;Laerm;57658;51.436;5.980;2023-02-21T00:48:22;42.09;29.46;58.28;;
67300;Laerm;57658;51.436;5.980;2023-02-21T00:48:51;34.80;29.10;52.42;;
67300;Laerm;57658;51.436;5.980;2023-02-21T00:49:19;30.56;28.61;35.70;;
67300;Laerm;57658;51.436;5.980;2023-02-21T00:49:48;31.18;28.72;41.63;;
67300;Laerm;57658;51.436;5.980;2023-02-21T00:50:17;31.15;29.16;36.44;;
67300;Laerm;57658;51.436;5.980;2023-02-21T00:50:45;30.95;29.04;37.36;;
67300;Laerm;57658;51.436;5.980;2023-02-21T00:51:14;30.66;28.81;36.66;;
67300;Laerm;57658;51.436;5.980;2023-02-21T00:51:43;31.24;29.47;39.71;;
67300;Laerm;57658;51.436;5.980;2023-02-21T00:52:12;32.86;29.59;38.64;;
67300;Laerm;57658;51.436;5.980;2023-02-21T00:52:41;34.10;29.93;44.39;;
67300;Laerm;57658;51.436;5.980;2023-02-21T00:53:09;33.34;29.61;45.03;;
67300;Laerm;57658;51.436;5.980;2023-02-21T00:53:38;36.86;29.52;57.62;;
67300;Laerm;57658;51.436;5.980;2023-02-21T00:54:07;33.27;30.26;42.65;;
67300;Laerm;57658;51.436;5.980;2023-02-21T00:54:36;71.11;31.03;81.16;;
67300;Laerm;57658;51.436;5.980;2023-02-21T00:55:05;67.36;55.37;77.24;;
67300;Laerm;57658;51.436;5.980;2023-02-21T00:55:34;81.39;56.52;93.11;;
67300;Laerm;57658;51.436;5.980;2023-02-21T00:56:03;44.54;30.68;64.73;;
67300;Laerm;57658;51.436;5.980;2023-02-21T00:56:32;33.69;29.85;51.86;;
67300;Laerm;57658;51.436;5.980;2023-02-21T00:57:01;35.50;30.76;52.32;;
67300;Laerm;57658;51.436;5.980;2023-02-21T00:57:30;31.70;29.17;37.72;;
67300;Laerm;57658;51.436;5.980;2023-02-21T00:57:59;34.20;29.80;50.69;;
67300;Laerm;57658;51.436;5.980;2023-02-21T00:58:28;33.15;30.19;40.14;;
67300;Laerm;57658;51.436;5.980;2023-02-21T00:58:56;31.68;28.94;37.05;;
67300;Laerm;57658;51.436;5.980;2023-02-21T00:59:25;31.92;29.38;37.93;;
67300;Laerm;57658;51.436;5.980;2023-02-21T00:59:54;33.57;29.47;47.98;;
67300;Laerm;57658;51.436;5.980;2023-02-21T01:00:23;51.07;30.85;69.81;;
67300;Laerm;57658;51.436;5.980;2023-02-21T01:00:52;33.16;30.81;39.52;;
67300;Laerm;57658;51.436;5.980;2023-02-21T01:01:21;33.50;30.38;51.97;;
67300;Laerm;57658;51.436;5.980;2023-02-21T01:01:50;43.84;31.53;62.68;;
67300;Laerm;57658;51.436;5.980;2023-02-21T01:02:19;38.05;30.43;56.01;;
67300;Laerm;57658;51.436;5.980;2023-02-21T01:02:48;32.07;30.20;37.14;;
67300;Laerm;57658;51.436;5.980;2023-02-21T01:03:17;32.70;31.03;37.27;;
67300;Laerm;57658;51.436;5.980;2023-02-21T01:03:46;32.62;30.70;38.66;;
67300;Laerm;57658;51.436;5.980;2023-02-21T01:04:15;70.80;31.90;79.53;;
67300;Laerm;57658;51.436;5.980;2023-02-21T01:04:44;66.64;55.11;77.59;;
67300;Laerm;57658;51.436;5.980;2023-02-21T01:05:12;80.66;57.66;85.94;;
67300;Laerm;57658;51.436;5.980;2023-02-21T01:05:41;73.49;32.48;84.64;;
67300;Laerm;57658;51.436;5.980;2023-02-21T01:06:10;34.55;30.64;58.26;;
67300;Laerm;57658;51.436;5.980;2023-02-21T01:06:39;32.31;30.59;38.06;;
67300;Laerm;57658;51.436;5.980;2023-02-21T01:07:08;32.14;30.29;36.36;;
67300;Laerm;57658;51.436;5.980;2023-02-21T01:07:37;33.38;31.30;37.30;;
67300;Laerm;57658;51.436;5.980;2023-02-21T01:08:06;34.49;32.39;43.18;;
67300;Laerm;57658;51.436;5.980;2023-02-21T01:08:35;33.08;31.36;35.50;;
67300;Laerm;57658;51.436;5.980;2023-02-21T01:09:04;34.11;31.36;39.42;;
67300;Laerm;57658;51.436;5.980;2023-02-21T01:09:33;71.14;34.19;80.33;;
67300;Laerm;57658;51.436;5.980;2023-02-21T01:10:02;74.58;53.38;88.02;;
67300;Laerm;57658;51.436;5.980;2023-02-21T01:10:31;81.54;55.38;88.39;;
67300;Laerm;57658;51.436;5.980;2023-02-21T01:11:00;51.00;34.36;70.75;;
67300;Laerm;57658;51.436;5.980;2023-02-21T01:11:29;35.73;32.94;41.31;;
67300;Laerm;57658;51.436;5.980;2023-02-21T01:11:57;38.57;32.48;54.13;;
67300;Laerm;57658;51.436;5.980;2023-02-21T01:12:26;41.12;31.59;56.14;;
67300;Laerm;57658;51.436;5.980;2023-02-21T01:12:55;33.09;30.28;41.13;;
67300;Laerm;57658;51.436;5.980;2023-02-21T01:13:24;32.01;29.48;40.16;;
67300;Laerm;57658;51.436;5.980;2023-02-21T01:13:53;31.72;29.77;37.27;;
67300;Laerm;57658;51.436;5.980;2023-02-21T01:14:22;32.67;29.88;41.89;;
67300;Laerm;57658;51.436;5.980;2023-02-21T01:14:51;32.24;30.39;35.57;;
67300;Laerm;57658;51.436;5.980;2023-02-21T01:15:20;32.54;29.94;38.70;;
67300;Laerm;57658;51.436;5.980;2023-02-21T01:15:49;32.00;30.35;36.64;;
67300;Laerm;57658;51.436;5.980;2023-02-21T01:16:18;32.45;29.59;44.27;;
67300;Laerm;57658;51.436;5.980;2023-02-21T01:16:47;36.01;29.45;50.00;;
67300;Laerm;57658;51.436;5.980;2023-02-21T01:17:16;51.63;30.20;70.74;;
67300;Laerm;57658;51.436;5.980;2023-02-21T01:17:45;35.99;29.17;51.48;;
67300;Laerm;57658;51.436;5.980;2023-02-21T01:18:13;36.03;29.57;49.40;;
67300;Laerm;57658;51.436;5.980;2023-02-21T01:18:42;31.03;29.62;34.02;;
67300;Laerm;57658;51.436;5.980;2023-02-21T01:19:11;31.60;29.64;41.22;;
67300;Laerm;57658;51.436;5.980;2023-02-21T01:19:41;71.44;30.38;79.88;;
67300;Laerm;57658;51.436;5.980;2023-02-21T01:20:10;72.83;55.90;84.18;;
67300;Laerm;57658;51.436;5.980;2023-02-21T01:20:38;79.48;52.00;91.58;;
67300;Laerm;57658;51.436;5.980;2023-02-21T01:21:11;36.61;29.38;50.91;;
67300;Laerm;57658;51.436;5.980;2023-02-21T01:21:40;31.65;29.26;37.24;;
67300;Laerm;57658;51.436;5.980;2023-02-21T01:22:09;33.12;29.56;42.34;;
67300;Laerm;57658;51.436;5.980;2023-02-21T01:22:37;32.39;30.31;45.39;;
67300;Laerm;57658;51.436;5.980;2023-02-21T01:23:06;32.89;30.14;38.09;;
67300;Laerm;57658;51.436;5.980;2023-02-21T01:23:35;35.93;30.89;47.36;;
67300;Laerm;57658;51.436;5.980;2023-02-21T01:24:05;67.83;30.69;79.67;;
67300;Laerm;57658;51.436;5.980;2023-02-21T01:24:35;69.72;57.00;79.57;;
67300;Laerm;57658;51.436;5.980;2023-02-21T01:25:04;75.73;55.59;84.32;;
67300;Laerm;57658;51.436;5.980;2023-02-21T01:25:33;74.75;42.53;82.63;;
67300;Laerm;57658;51.436;5.980;2023-02-21T01:26:02;39.88;32.70;48.05;;
67300;Laerm;57658;51.436;5.980;2023-02-21T01:26:31;33.73;30.97;39.51;;
67300;Laerm;57658;51.436;5.980;2023-02-21T01:27:00;31.98;29.59;41.49;;
67300;Laerm;57658;51.436;5.980;2023-02-21T01:27:29;31.64;29.41;38.83;;
67300;Laerm;57658;51.436;5.980;2023-02-21T01:27:58;31.31;29.67;34.81;;
67300;Laerm;57658;51.436;5.980;2023-02-21T01:28:27;69.38;29.35;81.35;;
67300;Laerm;57658;51.436;5.980;2023-02-21T01:28:56;69.52;55.52;80.16;;
67300;Laerm;57658;51.436;5.980;2023-02-21T01:29:24;77.49;56.69;85.72;;
67300;Laerm;57658;51.436;5.980;2023-02-21T01:29:53;79.79;54.66;85.87;;
67300;Laerm;57658;51.436;5.980;2023-02-21T01:30:22;59.41;37.35;70.41;;
67300;Laerm;57658;51.436;5.980;2023-02-21T01:30:51;38.55;34.75;45.80;;
67300;Laerm;57658;51.436;5.980;2023-02-21T01:31:20;48.10;29.90;68.34;;
67300;Laerm;57658;51.436;5.980;2023-02-21T01:31:49;32.96;30.62;37.48;;
67300;Laerm;57658;51.436;5.980;2023-02-21T01:32:18;31.72;30.13;34.41;;
67300;Laerm;57658;51.436;5.980;2023-02-21T01:32:47;33.44;30.75;44.23;;
67300;Laerm;57658;51.436;5.980;2023-02-21T01:33:16;32.98;30.76;37.09;;
67300;Laerm;57658;51.436;5.980;2023-02-21T01:33:45;35.65;32.01;45.98;;
67300;Laerm;57658;51.436;5.980;2023-02-21T01:34:14;55.20;31.36;66.18;;
67300;Laerm;57658;51.436;5.980;2023-02-21T01:34:43;32.61;30.04;35.18;;
67300;Laerm;57658;51.436;5.980;2023-02-21T01:35:12;31.66;29.66;34.82;;
67300;Laerm;57658;51.436;5.980;2023-02-21T01:35:41;31.25;29.46;34.71;;
67300;Laerm;57658;51.436;5.980;2023-02-21T01:36:10;31.44;29.75;36.33;;
67300;Laerm;57658;51.436;5.980;2023-02-21T01:36:40;31.44;29.38;35.08;;
67300;Laerm;57658;51.436;5.980;2023-02-21T01:37:09;32.30;30.41;35.78;;
67300;Laerm;57658;51.436;5.980;2023-02-21T01:37:38;32.29;30.05;34.12;;
67300;Laerm;57658;51.436;5.980;2023-02-21T01:38:07;31.14;29.33;37.09;;
67300;Laerm;57658;51.436;5.980;2023-02-21T01:38:36;31.14;29.26;33.83;;
67300;Laerm;57658;51.436;5.980;2023-02-21T01:39:05;54.75;31.47;65.11;;
67300;Laerm;57658;51.436;5.980;2023-02-21T01:39:34;39.40;30.72;49.92;;
67300;Laerm;57658;51.436;5.980;2023-02-21T01:40:03;32.68;29.99;35.16;;
67300;Laerm;57658;51.436;5.980;2023-02-21T01:40:32;32.37;30.08;35.26;;
67300;Laerm;57658;51.436;5.980;2023-02-21T01:41:01;32.84;31.32;35.73;;
67300;Laerm;57658;51.436;5.980;2023-02-21T01:41:30;31.84;29.22;34.35;;
67300;Laerm;57658;51.436;5.980;2023-02-21T01:41:59;30.93;29.44;33.44;;
67300;Laerm;57658;51.436;5.980;2023-02-21T01:42:27;31.24;29.07;33.91;;
67300;Laerm;57658;51.436;5.980;2023-02-21T01:42:56;30.70;29.08;32.94;;
67300;Laerm;57658;51.436;5.980;2023-02-21T01:43:25;30.38;28.99;33.79;;
67300;Laerm;57658;51.436;5.980;2023-02-21T01:44:02;30.61;28.99;32.67;;
67300;Laerm;57658;51.436;5.980;2023-02-21T01:44:38;32.23;30.32;33.87;;
67300;Laerm;57658;51.436;5.980;2023-02-21T01:45:49;36.89;30.32;45.91;;
67300;Laerm;57658;51.436;5.980;2023-02-21T01:46:19;35.92;31.19;48.99;;
67300;Laerm;57658;51.436;5.980;2023-02-21T01:46:48;32.44;29.09;37.90;;
67300;Laerm;57658;51.436;5.980;2023-02-21T01:47:17;31.41;28.76;36.53;;
67300;Laerm;57658;51.436;5.980;2023-02-21T01:47:46;31.40;28.54;37.53;;
67300;Laerm;57658;51.436;5.980;2023-02-21T01:48:16;36.36;28.87;48.07;;
67300;Laerm;57658;51.436;5.980;2023-02-21T01:48:46;71.42;36.14;80.07;;
67300;Laerm;57658;51.436;5.980;2023-02-21T01:49:17;67.89;54.99;77.25;;
67300;Laerm;57658;51.436;5.980;2023-02-21T01:49:46;82.90;58.87;90.90;;
67300;Laerm;57658;51.436;5.980;2023-02-21T01:50:47;41.16;33.13;52.46;;
67300;Laerm;57658;51.436;5.980;2023-02-21T01:51:18;35.48;32.00;49.37;;
67300;Laerm;57658;51.436;5.980;2023-02-21T01:51:47;32.64;29.23;46.74;;
67300;Laerm;57658;51.436;5.980;2023-02-21T01:52:16;30.93;28.70;41.81;;
67300;Laerm;57658;51.436;5.980;2023-02-21T01:52:45;31.44;29.18;39.33;;
67300;Laerm;57658;51.436;5.980;2023-02-21T01:53:18;30.17;28.62;35.06;;
67300;Laerm;57658;51.436;5.980;2023-02-21T01:53:47;30.82;28.59;38.03;;
67300;Laerm;57658;51.436;5.980;2023-02-21T01:54:16;31.32;28.99;41.48;;
67300;Laerm;57658;51.436;5.980;2023-02-21T01:54:46;31.39;28.76;44.92;;
67300;Laerm;57658;51.436;5.980;2023-02-21T01:55:17;31.31;28.78;40.66;;
67300;Laerm;57658;51.436;5.980;2023-02-21T01:55:46;31.09;28.87;42.64;;
67300;Laerm;57658;51.436;5.980;2023-02-21T01:56:14;32.46;28.28;50.21;;
67300;Laerm;57658;51.436;5.980;2023-02-21T01:56:43;31.09;28.62;41.52;;
67300;Laerm;57658;51.436;5.980;2023-02-21T01:57:13;31.23;28.79;43.21;;
67300;Laerm;57658;51.436;5.980;2023-02-21T01:57:42;30.14;28.51;37.44;;
67300;Laerm;57658;51.436;5.980;2023-02-21T01:58:12;30.00;28.31;33.82;;
67300;Laerm;57658;51.436;5.980;2023-02-21T01:58:40;30.47;28.65;35.30;;
67300;Laerm;57658;51.436;5.980;2023-02-21T01:59:10;52.23;29.26;63.87;;
67300;Laerm;57658;51.436;5.980;2023-02-21T01:59:38;47.63;35.73;60.49;;
67300;Laerm;57658;51.436;5.980;2023-02-21T02:00:09;52.55;30.25;71.20;;
67300;Laerm;57658;51.436;5.980;2023-02-21T02:00:38;49.39;29.19;69.20;;
67300;Laerm;57658;51.436;5.980;2023-02-21T02:01:08;30.82;29.12;33.39;;
67300;Laerm;57658;51.436;5.980;2023-02-21T02:01:43;31.65;29.07;35.87;;
67300;Laerm;57658;51.436;5.980;2023-02-21T02:03:09;31.45;28.81;44.04;;
67300;Laerm;57658;51.436;5.980;2023-02-21T02:03:38;31.06;28.63;37.79;;
67300;Laerm;57658;51.436;5.980;2023-02-21T02:04:08;47.77;29.84;64.12;;
67300;Laerm;57658;51.436;5.980;2023-02-21T02:04:37;32.57;29.34;46.84;;
67300;Laerm;57658;51.436;5.980;2023-02-21T02:05:07;31.50;29.58;36.69;;
67300;Laerm;57658;51.436;5.980;2023-02-21T02:05:37;34.47;30.33;44.16;;
67300;Laerm;57658;51.436;5.980;2023-02-21T02:06:07;53.22;33.01;63.05;;
67300;Laerm;57658;51.436;5.980;2023-02-21T02:06:37;32.43;29.81;36.70;;
67300;Laerm;57658;51.436;5.980;2023-02-21T02:07:06;30.97;29.15;33.21;;
67300;Laerm;57658;51.436;5.980;2023-02-21T02:07:35;30.70;29.32;33.13;;
67300;Laerm;57658;51.436;5.980;2023-02-21T02:08:04;31.11;29.49;36.60;;
67300;Laerm;57658;51.436;5.980;2023-02-21T02:08:34;32.29;30.39;34.95;;
67300;Laerm;57658;51.436;5.980;2023-02-21T02:09:13;32.54;30.04;40.86;;
67300;Laerm;57658;51.436;5.980;2023-02-21T02:09:43;32.52;30.48;35.71;;
67300;Laerm;57658;51.436;5.980;2023-02-21T02:10:12;32.23;30.00;35.09;;
67300;Laerm;57658;51.436;5.980;2023-02-21T02:10:41;31.66;29.90;40.05;;
67300;Laerm;57658;51.436;5.980;2023-02-21T02:11:29;31.43;29.25;34.28;;
67300;Laerm;57658;51.436;5.980;2023-02-21T02:12:45;31.41;29.30;33.56;;
67300;Laerm;57658;51.436;5.980;2023-02-21T02:13:09;33.09;30.41;36.39;;
67300;Laerm;57658;51.436;5.980;2023-02-21T02:13:42;54.80;41.94;61.97;;
67300;Laerm;57658;51.436;5.980;2023-02-21T02:14:59;31.83;29.94;36.12;;
67300;Laerm;57658;51.436;5.980;2023-02-21T02:15:42;32.69;30.38;42.13;;
67300;Laerm;57658;51.436;5.980;2023-02-21T02:16:25;31.91;30.23;34.70;;
67300;Laerm;57658;51.436;5.980;2023-02-21T02:16:48;67.79;31.77;80.48;;
67300;Laerm;57658;51.436;5.980;2023-02-21T02:17:04;71.73;54.96;79.50;;
67300;Laerm;57658;51.436;5.980;2023-02-21T02:18:07;83.17;45.38;92.21;;
67300;Laerm;57658;51.436;5.980;2023-02-21T02:20:58;30.86;29.52;33.45;;
67300;Laerm;57658;51.436;5.980;2023-02-21T02:22:50;30.23;28.65;33.36;;
67300;Laerm;57658;51.436;5.980;2023-02-21T02:23:58;31.07;29.29;36.10;;
67300;Laerm;57658;51.436;5.980;2023-02-21T02:24:42;30.44;28.67;37.36;;
67300;Laerm;57658;51.436;5.980;2023-02-21T02:27:59;34.28;30.28;40.45;;
67300;Laerm;57658;51.436;5.980;2023-02-21T02:30:57;34.81;28.65;43.62;;
67300;Laerm;57658;51.436;5.980;2023-02-21T02:32:27;67.14;54.73;78.77;;
67300;Laerm;57658;51.436;5.980;2023-02-21T02:35:44;34.92;31.18;39.89;;
67300;Laerm;57658;51.436;5.980;2023-02-21T02:36:05;31.87;29.96;36.76;;
67300;Laerm;57658;51.436;5.980;2023-02-21T02:36:48;31.56;29.77;33.58;;
67300;Laerm;57658;51.436;5.980;2023-02-21T02:37:05;30.74;28.88;32.86;;
67300;Laerm;57658;51.436;5.980;2023-02-21T02:37:40;30.95;29.52;32.53;;
67300;Laerm;57658;51.436;5.980;2023-02-21T02:38:58;30.58;29.06;32.51;;
67300;Laerm;57658;51.436;5.980;2023-02-21T02:39:14;30.79;29.26;32.40;;
67300;Laerm;57658;51.436;5.980;2023-02-21T02:40:26;32.02;30.33;34.24;;
67300;Laerm;57658;51.436;5.980;2023-02-21T02:40:53;31.83;30.27;33.36;;
67300;Laerm;57658;51.436;5.980;2023-02-21T02:41:42;71.69;29.78;80.31;;
67300;Laerm;57658;51.436;5.980;2023-02-21T02:42:34;79.85;76.25;83.90;;
67300;Laerm;57658;51.436;5.980;2023-02-21T02:43:08;72.02;42.46;83.48;;
67300;Laerm;57658;51.436;5.980;2023-02-21T02:43:58;33.88;30.88;36.96;;
67300;Laerm;57658;51.436;5.980;2023-02-21T02:44:08;38.85;33.45;48.46;;
67300;Laerm;57658;51.436;5.980;2023-02-21T02:44:17;32.37;30.72;34.07;;
67300;Laerm;57658;51.436;5.980;2023-02-21T02:44:38;31.76;29.50;33.96;;
67300;Laerm;57658;51.436;5.980;2023-02-21T02:44:51;31.52;29.82;33.16;;
67300;Laerm;57658;51.436;5.980;2023-02-21T02:45:05;31.19;29.85;32.88;;
67300;Laerm;57658;51.436;5.980;2023-02-21T02:45:27;31.26;29.71;32.80;;
67300;Laerm;57658;51.436;5.980;2023-02-21T02:45:43;31.68;29.83;34.18;;
67300;Laerm;57658;51.436;5.980;2023-02-21T02:45:57;31.67;29.81;32.97;;
67300;Laerm;57658;51.436;5.980;2023-02-21T02:46:11;31.68;30.04;33.16;;
67300;Laerm;57658;51.436;5.980;2023-02-21T02:46:35;31.43;30.06;32.80;;
67300;Laerm;57658;51.436;5.980;2023-02-21T02:46:47;33.08;29.89;37.81;;
67300;Laerm;57658;51.436;5.980;2023-02-21T02:46:58;33.93;31.52;39.50;;
67300;Laerm;57658;51.436;5.980;2023-02-21T02:47:16;71.25;33.23;79.87;;
67300;Laerm;57658;51.436;5.980;2023-02-21T02:47:30;71.91;56.66;79.16;;
67300;Laerm;57658;51.436;5.980;2023-02-21T02:47:42;66.08;55.68;78.13;;
67300;Laerm;57658;51.436;5.980;2023-02-21T02:47:56;68.35;56.34;78.23;;
67300;Laerm;57658;51.436;5.980;2023-02-21T02:48:15;84.43;77.74;90.25;;
67300;Laerm;57658;51.436;5.980;2023-02-21T02:48:41;80.95;43.94;90.41;;
67300;Laerm;57658;51.436;5.980;2023-02-21T02:49:09;47.11;34.96;57.48;;
67300;Laerm;57658;51.436;5.980;2023-02-21T02:49:22;31.86;29.10;36.73;;
67300;Laerm;57658;51.436;5.980;2023-02-21T02:49:35;30.30;28.99;35.70;;
67300;Laerm;57658;51.436;5.980;2023-02-21T02:49:47;30.62;28.72;40.05;;
67300;Laerm;57658;51.436;5.980;2023-02-21T02:50:00;29.73;28.57;31.18;;
67300;Laerm;57658;51.436;5.980;2023-02-21T02:50:11;30.15;28.60;40.20;;
67300;Laerm;57658;51.436;5.980;2023-02-21T02:50:22;29.55;28.39;31.20;;
67300;Laerm;57658;51.436;5.980;2023-02-21T02:50:33;29.43;28.27;30.55;;
67300;Laerm;57658;51.436;5.980;2023-02-21T02:50:46;29.54;28.25;31.14;;
67300;Laerm;57658;51.436;5.980;2023-02-21T02:50:57;29.55;28.30;34.20;;
67300;Laerm;57658;51.436;5.980;2023-02-21T02:51:08;29.47;28.06;30.88;;
67300;Laerm;57658;51.436;5.980;2023-02-21T02:51:20;30.97;28.56;39.89;;
67300;Laerm;57658;51.436;5.980;2023-02-21T02:51:31;31.08;28.88;36.42;;
67300;Laerm;57658;51.436;5.980;2023-02-21T02:51:43;32.67;29.15;43.86;;
67300;Laerm;57658;51.436;5.980;2023-02-21T02:51:53;32.03;29.50;39.52;;
67300;Laerm;57658;51.436;5.980;2023-02-21T02:52:05;30.87;29.32;34.43;;
67300;Laerm;57658;51.436;5.980;2023-02-21T02:52:16;30.69;29.09;35.26;;
67300;Laerm;57658;51.436;5.980;2023-02-21T02:52:26;30.18;28.83;32.54;;
67300;Laerm;57658;51.436;5.980;2023-02-21T02:52:37;30.42;28.42;35.48;;
67300;Laerm;57658;51.436;5.980;2023-02-21T02:52:48;30.46;28.71;34.23;;
67300;Laerm;57658;51.436;5.980;2023-02-21T02:53:00;31.15;28.50;41.75;;
67300;Laerm;57658;51.436;5.980;2023-02-21T02:53:11;30.46;28.64;41.42;;
67300;Laerm;57658;51.436;5.980;2023-02-21T02:53:27;32.44;28.48;46.36;;
67300;Laerm;57658;51.436;5.980;2023-02-21T02:53:38;71.43;29.10;78.85;;